Sitka, AK (99835)

8:53 PM AKST on February 07, 2016 (GMT -0900)
NOS_NWLON | | Change Station
CLOSE
Current Station
Personal Weather Station
Location: Sitka, AK
Elevation: 0 ft
Nearby Weather Stations

Elev 0 ft 57.05 °N, 135.34 °W | Updated 35 minutes ago

Clear
Clear
45 °F
Feels Like 45 °F
N
Wind Variable Wind from North
Gusts 0.0 mph

Today
High -- | Low -- °F
--% Chance of Precip.
Yesterday
High -- | Low -- °F
Precip. -- in
Pressure 30.09 in
Visibility 10.0 miles
Clouds Clear
Windchill 45 °F
Dew Point Not available.
Humidity Not available.
Rainfall in
Snow Depth Not available.
7:48 AM 4:43 PM
Waning Crescent, 0% visible
METAR PASI 080453Z 13007KT 10SM CLR 07/03 A3009 RMK AO2 SLP190 T00720028
Pressure 30.09 in
Visibility 10.0 miles
Clouds Clear
Windchill 45 °F
Dew Point Not available.
Humidity Not available.
Rainfall in
Snow Depth Not available.
7:48 AM 4:43 PM
Waning Crescent, 0% visible
METAR PASI 080453Z 13007KT 10SM CLR 07/03 A3009 RMK AO2 SLP190 T00720028

10-Day Weather Forecast

Almanac

Astronomy

Feb. 07, 2016 Rise Set
Actual Time
Civil Twilight
Nautical Twilight
Astronomical Twilight
Moon
Length of Visible Light
Length of Day
Tomorrow will be .
, % of the Moon is Illuminated

Today's Extremes

State Highs State Lows

Community

WunderPhotos

Upload Photos

1,891,390 photos uploaded!

WunderBlog® & News

Nearby

Air Quality

  Air Quality AQ Index Pollutant
Not available.

Snow Depth

Station Depth Elevation

Earthquake Activity

City Distance Mag. Time & Date
Minimum magnitude displayed is 2.5.

Coastal Water Temperatures

Place Temperature

Stations

Nearby Weather Stations

Station Location Temp. Windchill Dew Point Humidity Wind Precip. Elev Updated Type
                   

Watches & Warnings

There are currently no watches in effect.